LYBE/BEG METAR and TAF weather

Enter ICAO airport designator
Station Type Date Time Source
LYBE METAR 2018/05/23 14:00 UTC NOAA

LYBE 231400Z 13009KT CAVOK 28/16 Q1015 NOSIG


Station Type Date Time Source
LYBE Decoded METAR 2018/05/23 14:00 UTC NOAA

Beograd / Surcin, Serbia and Montenegro (LYBE) 44-49N 020-17E 99M
May 23, 2018 - 10:00 AM EDT / 2018.05.23 1400 UTC
Wind: from the SE (130 degrees) at 10 MPH (9 KT):0
Visibility: greater than 7 mile(s):0
Temperature: 82 F (28 C)
Dew Point: 60 F (16 C)
Relative Humidity: 48%
Pressure (altimeter): 29.97 in. Hg (1015 hPa)
ob: LYBE 231400Z 13009KT CAVOK 28/16 Q1015 NOSIG
cycle: 14

Station Type Date Time Source
LYBE TAF 2018/05/23 12:21 UTC NOAA

TAF TAF LYBE 231100Z 2312/2412 11009KT 9999 SCT040 TX28/2313Z TN17/2403Z
TEMPO 2314/2318 VRB15KT 4000 TSRA SCT030CB SCT040


Example: see airport list